createdAt,value
2023-07-17T00:00:02.570Z,99627.22
2023-07-17T00:00:16.673Z,99624.59
2023-07-17T00:00:32.094Z,99620.97
2023-07-17T00:00:48.113Z,99621.84
2023-07-17T00:01:00.151Z,99621.59
2023-07-17T00:01:12.157Z,99631.53
2023-07-17T00:01:24.333Z,99628.16
2023-07-17T00:01:36.458Z,99622.88
2023-07-17T00:01:48.551Z,99623.03
2023-07-17T00:02:00.584Z,99626.38
2023-07-17T00:02:12.581Z,99621.13
2023-07-17T00:02:25.166Z,99626.25
2023-07-17T00:02:37.159Z,99623.75
2023-07-17T00:02:49.225Z,99627.44
2023-07-17T00:03:01.391Z,99626.25
2023-07-17T00:03:13.663Z,99625.31
2023-07-17T00:03:26.080Z,99626.25
2023-07-17T00:03:38.204Z,99620.88
2023-07-17T00:03:51.326Z,99622.69
2023-07-17T00:04:03.561Z,99619.75
2023-07-17T00:04:15.631Z,99624.16
2023-07-17T00:04:27.620Z,99618.88
2023-07-17T00:04:39.566Z,99625.88
2023-07-17T00:04:51.752Z,99621.66
2023-07-17T00:05:05.315Z,99626.94
2023-07-17T00:05:17.700Z,99625.47
2023-07-17T00:05:29.682Z,99624.75
2023-07-17T00:05:41.700Z,99624.00
2023-07-17T00:05:53.717Z,99620.41
2023-07-17T00:06:06.125Z,99622.31
2023-07-17T00:06:18.166Z,99626.66
2023-07-17T00:06:30.834Z,99624.94
2023-07-17T00:06:42.797Z,99624.22
2023-07-17T00:06:54.763Z,99625.03
2023-07-17T00:07:06.752Z,99626.13
2023-07-17T00:07:18.698Z,99627.19
2023-07-17T00:07:31.351Z,99629.09
2023-07-17T00:07:43.458Z,99633.28
2023-07-17T00:07:55.423Z,99626.13
2023-07-17T00:08:07.596Z,99625.03
2023-07-17T00:08:19.615Z,99631.38
2023-07-17T00:08:31.709Z,99630.56
2023-07-17T00:08:43.692Z,99631.63
2023-07-17T00:08:55.622Z,99624.44
2023-07-17T00:09:07.853Z,99631.38
2023-07-17T00:09:19.776Z,99634.75
2023-07-17T00:09:31.880Z,99627.69
2023-07-17T00:09:44.575Z,99627.59
2023-07-17T00:09:56.698Z,99621.47
2023-07-17T00:10:10.272Z,99627.47
2023-07-17T00:10:22.342Z,99621.38
2023-07-17T00:10:34.302Z,99618.72
2023-07-17T00:10:46.338Z,99621.47
2023-07-17T00:10:59.305Z,99624.94
2023-07-17T00:11:11.275Z,99622.53
2023-07-17T00:11:23.632Z,99622.53
2023-07-17T00:11:35.626Z,99624.22
2023-07-17T00:11:47.646Z,99624.22
2023-07-17T00:11:59.643Z,99621.56
2023-07-17T00:12:11.623Z,99626.75
2023-07-17T00:12:23.638Z,99627.59
2023-07-17T00:12:37.403Z,99627.38
2023-07-17T00:12:49.449Z,99625.56
2023-07-17T00:13:01.510Z,99628.94
2023-07-17T00:13:13.531Z,99630.75
2023-07-17T00:13:26.196Z,99626.31
2023-07-17T00:13:38.151Z,99632.41
2023-07-17T00:13:50.120Z,99621.88
2023-07-17T00:14:02.139Z,99632.41
2023-07-17T00:14:14.569Z,99629.03
2023-07-17T00:14:26.673Z,99634.31
2023-07-17T00:14:38.714Z,99631.59
2023-07-17T00:14:50.744Z,99634.13
2023-07-17T00:15:06.202Z,99630.50
2023-07-17T00:15:18.191Z,99626.81
2023-07-17T00:15:30.173Z,99638.94
2023-07-17T00:15:43.074Z,99631.78
2023-07-17T00:15:55.256Z,99626.38
2023-07-17T00:16:07.213Z,99626.25
2023-07-17T00:16:20.962Z,99620.97
2023-07-17T00:16:36.295Z,99628.78
2023-07-17T00:16:48.581Z,99626.03
2023-07-17T00:17:00.568Z,99634.91
2023-07-17T00:17:13.480Z,99624.34
2023-07-17T00:17:25.737Z,99631.31
2023-07-17T00:17:37.884Z,99627.72
2023-07-17T00:17:49.968Z,99629.41
2023-07-17T00:18:02.193Z,99630.16
2023-07-17T00:18:14.385Z,99623.06
2023-07-17T00:18:26.384Z,99625.59
2023-07-17T00:18:39.226Z,99628.97
2023-07-17T00:18:51.166Z,99622.72
2023-07-17T00:19:03.138Z,99628.00
2023-07-17T00:19:15.060Z,99620.94
2023-07-17T00:19:27.209Z,99621.69
2023-07-17T00:19:40.113Z,99630.44
2023-07-17T00:19:57.154Z,99623.34
2023-07-17T00:20:12.831Z,99623.25
2023-07-17T00:20:24.786Z,99624.91
2023-07-17T00:20:36.806Z,99622.16
2023-07-17T00:20:48.861Z,99628.31
2023-07-17T00:21:00.928Z,99629.97
2023-07-17T00:21:12.900Z,99622.16
2023-07-17T00:21:25.223Z,99622.16
2023-07-17T00:21:37.225Z,99628.31
2023-07-17T00:21:49.192Z,99630.19
2023-07-17T00:22:01.232Z,99624.91
2023-07-17T00:22:13.192Z,99629.47
2023-07-17T00:22:25.677Z,99624.91
2023-07-17T00:22:37.860Z,99626.63
2023-07-17T00:22:49.846Z,99628.31
2023-07-17T00:23:02.051Z,99624.69
2023-07-17T00:23:14.122Z,99626.41
2023-07-17T00:23:26.155Z,99631.78
2023-07-17T00:23:38.130Z,99626.41
2023-07-17T00:23:50.184Z,99632.63
2023-07-17T00:24:02.121Z,99635.06
2023-07-17T00:24:14.410Z,99634.06
2023-07-17T00:24:26.428Z,99635.06
2023-07-17T00:24:38.356Z,99629.16
2023-07-17T00:24:53.754Z,99629.16
2023-07-17T00:25:06.003Z,99626.63
2023-07-17T00:25:18.387Z,99635.25
2023-07-17T00:25:30.506Z,99635.06
2023-07-17T00:25:42.453Z,99635.06
2023-07-17T00:25:54.429Z,99635.88
2023-07-17T00:26:06.443Z,99635.06
2023-07-17T00:26:18.658Z,99635.25
2023-07-17T00:26:31.379Z,99637.91
2023-07-17T00:26:43.667Z,99631.88
2023-07-17T00:26:55.715Z,99630.81
2023-07-17T00:27:07.664Z,99630.72
2023-07-17T00:27:20.629Z,99631.69
2023-07-17T00:27:32.894Z,99633.34
2023-07-17T00:27:44.850Z,99634.31
2023-07-17T00:27:56.879Z,99633.34
2023-07-17T00:28:08.840Z,99630.81
2023-07-17T00:28:20.768Z,99633.34
2023-07-17T00:28:32.888Z,99629.78
2023-07-17T00:28:44.849Z,99628.81
2023-07-17T00:29:36.370Z,99635.31
2023-07-17T00:29:51.540Z,99640.59
2023-07-17T00:30:04.276Z,99637.09
2023-07-17T00:30:16.317Z,99637.97
2023-07-17T00:30:31.881Z,99640.47
2023-07-17T00:30:44.263Z,99643.25
2023-07-17T00:30:56.330Z,99639.63
2023-07-17T00:31:08.436Z,99637.09
2023-07-17T00:31:20.913Z,99641.34
2023-07-17T00:31:33.137Z,99643.00
2023-07-17T00:31:45.234Z,99635.81
2023-07-17T00:31:58.754Z,99633.06
2023-07-17T00:32:14.781Z,99632.97
2023-07-17T00:32:26.876Z,99637.28
2023-07-17T00:32:39.345Z,99638.97
2023-07-17T00:32:51.935Z,99644.25
2023-07-17T00:33:04.024Z,99649.53
2023-07-17T00:33:16.350Z,99638.09
2023-07-17T00:33:28.600Z,99647.84
2023-07-17T00:33:40.621Z,99643.38
2023-07-17T00:33:52.563Z,99638.97
2023-07-17T00:34:04.541Z,99639.69
2023-07-17T00:34:17.004Z,99644.97
2023-07-17T00:34:28.963Z,99644.00
2023-07-17T00:34:42.616Z,99638.25
2023-07-17T00:34:54.571Z,99639.06
2023-07-17T00:35:06.975Z,99646.16
2023-07-17T00:35:18.984Z,99645.53
2023-07-17T00:35:30.952Z,99643.84
2023-07-17T00:35:43.027Z,99646.38
2023-07-17T00:35:55.012Z,99643.00
2023-07-17T00:36:07.230Z,99645.53
2023-07-17T00:36:19.170Z,99645.44
2023-07-17T00:36:31.169Z,99653.22
2023-07-17T00:36:43.197Z,99645.31
2023-07-17T00:36:55.297Z,99649.63
2023-07-17T00:37:07.763Z,99649.63
2023-07-17T00:37:19.927Z,99652.16
2023-07-17T00:37:31.898Z,99647.63
2023-07-17T00:37:44.315Z,99643.28
2023-07-17T00:37:56.297Z,99640.63
2023-07-17T00:38:08.298Z,99644.00
2023-07-17T00:38:20.753Z,99644.00
2023-07-17T00:38:32.710Z,99641.47
2023-07-17T00:38:44.902Z,99633.69
2023-07-17T00:38:56.863Z,99648.81
2023-07-17T00:39:08.945Z,99636.44
2023-07-17T00:39:21.528Z,99636.44
2023-07-17T00:39:34.204Z,99638.25
2023-07-17T00:39:46.462Z,99646.16
2023-07-17T00:39:58.827Z,99646.16
2023-07-17T00:40:11.061Z,99633.91
2023-07-17T00:40:23.069Z,99642.66
2023-07-17T00:40:39.986Z,99645.31
2023-07-17T00:40:51.979Z,99640.16
2023-07-17T00:41:04.164Z,99639.44
2023-07-17T00:41:16.310Z,99639.00
2023-07-17T00:41:28.656Z,99646.00
2023-07-17T00:41:40.678Z,99642.28
2023-07-17T00:41:52.684Z,99642.38
2023-07-17T00:42:04.968Z,99641.34
2023-07-17T00:42:16.947Z,99640.38
2023-07-17T00:42:29.001Z,99642.06
2023-07-17T00:42:41.295Z,99631.50
2023-07-17T00:42:58.817Z,99636.06
2023-07-17T00:43:13.513Z,99641.09
2023-07-17T00:43:25.529Z,99627.16
2023-07-17T00:43:37.750Z,99628.13
2023-07-17T00:43:49.739Z,99629.69
2023-07-17T00:44:01.736Z,99626.22
2023-07-17T00:44:13.866Z,99631.38
2023-07-17T00:44:26.034Z,99633.19
2023-07-17T00:44:39.272Z,99627.91
2023-07-17T00:44:52.088Z,99632.34
2023-07-17T00:45:04.723Z,99634.97
2023-07-17T00:45:16.765Z,99634.00
2023-07-17T00:45:32.818Z,99631.50
2023-07-17T00:45:45.979Z,99636.78
2023-07-17T00:45:58.500Z,99636.78
2023-07-17T00:46:10.810Z,99631.50
2023-07-17T00:46:22.976Z,99641.09
2023-07-17T00:46:35.390Z,99640.25
2023-07-17T00:46:49.735Z,99621.69
2023-07-17T00:47:01.884Z,99634.72
2023-07-17T00:47:14.074Z,99638.34
2023-07-17T00:47:26.170Z,99632.22
2023-07-17T00:47:38.532Z,99636.44
2023-07-17T00:47:50.621Z,99636.44
2023-07-17T00:48:04.490Z,99631.16
2023-07-17T00:48:16.575Z,99634.72
2023-07-17T00:48:28.652Z,99630.31
2023-07-17T00:48:40.876Z,99641.09
2023-07-17T00:48:52.985Z,99638.44
2023-07-17T00:49:07.560Z,99639.44
2023-07-17T00:49:21.718Z,99629.69
2023-07-17T00:49:34.604Z,99642.91
2023-07-17T00:49:49.024Z,99639.44
2023-07-17T00:50:02.432Z,99644.72
2023-07-17T00:50:14.498Z,99634.97
2023-07-17T00:50:28.272Z,99637.50
2023-07-17T00:50:40.706Z,99631.25
2023-07-17T00:50:52.723Z,99635.59
2023-07-17T00:51:04.845Z,99639.06
2023-07-17T00:51:17.175Z,99635.59
2023-07-17T00:51:29.410Z,99648.66
2023-07-17T00:51:42.586Z,99637.28
2023-07-17T00:51:57.355Z,99645.19
2023-07-17T00:52:11.261Z,99634.63
2023-07-17T00:52:23.862Z,99637.28
2023-07-17T00:52:39.715Z,99635.59
2023-07-17T00:52:51.881Z,99636.44
2023-07-17T00:53:05.074Z,99633.91
2023-07-17T00:53:17.667Z,99640.00
2023-07-17T00:53:29.803Z,99633.06
2023-07-17T00:53:43.768Z,99637.50
2023-07-17T00:53:56.643Z,99630.53
2023-07-17T00:54:11.150Z,99639.44
2023-07-17T00:54:23.557Z,99639.00
2023-07-17T00:54:36.458Z,99636.50
2023-07-17T00:54:49.635Z,99625.09
2023-07-17T00:55:02.284Z,99634.19
2023-07-17T00:55:15.658Z,99636.97
2023-07-17T00:55:27.901Z,99631.69
2023-07-17T00:55:39.888Z,99635.16
2023-07-17T00:55:51.868Z,99636.00
2023-07-17T00:56:04.003Z,99626.25
2023-07-17T00:56:16.566Z,99636.72
2023-07-17T00:56:29.904Z,99627.88
2023-07-17T00:56:43.232Z,99636.50
2023-07-17T00:56:58.087Z,99632.91
2023-07-17T00:57:12.413Z,99630.50
2023-07-17T00:57:26.120Z,99629.78
2023-07-17T00:57:39.049Z,99632.28
2023-07-17T00:57:52.808Z,99637.56
2023-07-17T00:58:05.442Z,99629.78
2023-07-17T00:58:17.535Z,99630.72
2023-07-17T00:58:29.648Z,99630.94
2023-07-17T00:58:41.993Z,99631.88
2023-07-17T00:58:54.011Z,99631.06
2023-07-17T00:59:06.533Z,99633.06
2023-07-17T00:59:18.752Z,99633.16
2023-07-17T00:59:31.691Z,99630.63
2023-07-17T00:59:43.810Z,99630.88
2023-07-17T00:59:55.937Z,99633.72
2023-07-17T01:00:10.103Z,99635.31
2023-07-17T01:00:24.410Z,99632.78
2023-07-17T01:00:37.432Z,99635.09
2023-07-17T01:00:49.635Z,99640.97
2023-07-17T01:01:04.041Z,99639.91
2023-07-17T01:01:16.613Z,99640.75
2023-07-17T01:01:29.468Z,99636.34
2023-07-17T01:01:42.952Z,99644.16
2023-07-17T01:01:55.499Z,99647.72
2023-07-17T01:02:09.533Z,99636.44
2023-07-17T01:02:23.474Z,99647.94
2023-07-17T01:02:40.320Z,99640.97
2023-07-17T01:02:54.327Z,99637.38
2023-07-17T01:03:06.618Z,99644.34
2023-07-17T01:03:18.798Z,99644.56
2023-07-17T01:03:31.737Z,99644.47
2023-07-17T01:03:43.823Z,99645.19
2023-07-17T01:03:56.412Z,99642.44
2023-07-17T01:04:09.718Z,99644.16
2023-07-17T01:04:21.671Z,99645.81
2023-07-17T01:04:33.639Z,99642.25
2023-07-17T01:04:48.781Z,99643.19
2023-07-17T01:05:00.848Z,99640.31
2023-07-17T01:05:12.842Z,99640.31
2023-07-17T01:05:25.059Z,99640.09
2023-07-17T01:05:37.401Z,99636.50
2023-07-17T01:05:49.370Z,99639.88
2023-07-17T01:06:01.392Z,99642.50
2023-07-17T01:06:13.373Z,99633.72
2023-07-17T01:06:28.460Z,99634.91
2023-07-17T01:06:40.541Z,99638.41
2023-07-17T01:06:52.560Z,99640.31
2023-07-17T01:07:04.803Z,99636.72
2023-07-17T01:07:17.146Z,99635.06
2023-07-17T01:07:29.068Z,99633.34
2023-07-17T01:07:41.244Z,99633.34
2023-07-17T01:07:55.458Z,99639.47
2023-07-17T01:08:07.458Z,99635.06
2023-07-17T01:08:19.413Z,99629.78
2023-07-17T01:08:32.388Z,99631.44
2023-07-17T01:08:44.488Z,99635.88
2023-07-17T01:08:56.523Z,99627.88
2023-07-17T01:09:11.008Z,99627.88
2023-07-17T01:09:23.172Z,99634.81
2023-07-17T01:09:36.660Z,99635.06
2023-07-17T01:09:49.367Z,99631.69
2023-07-17T01:10:01.705Z,99633.34
2023-07-17T01:10:13.765Z,99633.34
2023-07-17T01:10:26.884Z,99631.44
2023-07-17T01:10:38.896Z,99633.00
2023-07-17T01:10:51.622Z,99631.22
2023-07-17T01:11:03.813Z,99632.06
2023-07-17T01:11:16.936Z,99631.22
2023-07-17T01:11:29.021Z,99627.63
2023-07-17T01:11:41.075Z,99631.09
2023-07-17T01:11:53.059Z,99631.09
2023-07-17T01:12:05.424Z,99628.34
2023-07-17T01:12:17.401Z,99625.72
2023-07-17T01:12:29.601Z,99635.44
2023-07-17T01:12:41.656Z,99631.00
2023-07-17T01:12:53.728Z,99634.59
2023-07-17T01:13:05.690Z,99629.31
2023-07-17T01:13:17.716Z,99632.78
2023-07-17T01:13:29.650Z,99631.09
2023-07-17T01:13:45.749Z,99634.69
2023-07-17T01:13:57.719Z,99632.91
2023-07-17T01:14:19.699Z,99629.44
2023-07-17T01:14:31.696Z,99625.09
2023-07-17T01:14:43.748Z,99620.66
2023-07-17T01:14:55.884Z,99621.72
2023-07-17T01:15:08.229Z,99626.41
2023-07-17T01:15:20.298Z,99626.41
2023-07-17T01:15:32.245Z,99626.41
2023-07-17T01:15:44.207Z,99626.41
2023-07-17T01:15:56.243Z,99619.44
2023-07-17T01:16:08.679Z,99619.31
2023-07-17T01:16:20.674Z,99624.50
2023-07-17T01:16:32.721Z,99617.50
2023-07-17T01:16:46.977Z,99631.44
2023-07-17T01:16:59.055Z,99619.22
2023-07-17T01:17:11.107Z,99622.78
2023-07-17T01:17:23.852Z,99623.53
2023-07-17T01:17:35.841Z,99624.25
2023-07-17T01:17:47.904Z,99617.31
2023-07-17T01:17:59.973Z,99621.59
2023-07-17T01:18:12.021Z,99618.03
2023-07-17T01:18:23.983Z,99617.06
2023-07-17T01:18:35.962Z,99609.88
2023-07-17T01:18:47.932Z,99609.50
2023-07-17T01:18:59.939Z,99611.28
2023-07-17T01:19:11.881Z,99619.22
2023-07-17T01:19:23.854Z,99613.19
2023-07-17T01:19:35.790Z,99615.84
2023-07-17T01:19:47.796Z,99613.19
2023-07-17T01:19:59.793Z,99620.16
2023-07-17T01:20:12.091Z,99615.59
2023-07-17T01:20:24.142Z,99615.41
2023-07-17T01:20:36.145Z,99610.84
2023-07-17T01:20:49.546Z,99617.78
2023-07-17T01:21:02.657Z,99615.16
2023-07-17T01:21:18.217Z,99615.78
2023-07-17T01:21:36.345Z,99620.22
2023-07-17T01:21:57.803Z,99621.16
2023-07-17T01:22:23.030Z,99625.50
2023-07-17T01:22:42.675Z,99615.16
2023-07-17T01:22:57.766Z,99622.13
2023-07-17T01:23:10.431Z,99621.25
2023-07-17T01:23:22.414Z,99625.72
2023-07-17T01:23:34.614Z,99617.91
2023-07-17T01:23:46.713Z,99619.69
2023-07-17T01:23:58.686Z,99615.41
2023-07-17T01:24:10.712Z,99622.59
2023-07-17T01:24:22.695Z,99613.69
2023-07-17T01:24:34.700Z,99614.16
2023-07-17T01:24:46.742Z,99623.03
2023-07-17T01:24:58.727Z,99620.50
2023-07-17T01:25:10.695Z,99622.28
2023-07-17T01:25:22.797Z,99620.81
2023-07-17T01:25:35.189Z,99625.16
2023-07-17T01:25:47.252Z,99616.25
2023-07-17T01:25:59.560Z,99619.88
2023-07-17T01:26:13.562Z,99629.47
2023-07-17T01:26:25.576Z,99622.41
2023-07-17T01:26:37.571Z,99627.56
2023-07-17T01:26:49.664Z,99626.63
2023-07-17T01:27:01.726Z,99629.16
2023-07-17T01:27:14.251Z,99624.91
2023-07-17T01:27:26.251Z,99621.34
2023-07-17T01:27:38.238Z,99629.97
2023-07-17T01:27:50.273Z,99623.75
2023-07-17T01:28:02.297Z,99626.41
2023-07-17T01:28:14.473Z,99629.03
2023-07-17T01:28:26.887Z,99624.91
2023-07-17T01:28:39.182Z,99628.53
2023-07-17T01:28:51.273Z,99624.91
2023-07-17T01:29:03.422Z,99637.16
2023-07-17T01:29:15.797Z,99624.91
2023-07-17T01:29:27.874Z,99628.31
2023-07-17T01:29:39.874Z,99623.97
2023-07-17T01:29:51.878Z,99626.50
2023-07-17T01:30:06.152Z,99624.69
2023-07-17T01:30:18.502Z,99625.53
2023-07-17T01:30:30.531Z,99621.97
2023-07-17T01:30:42.612Z,99631.44
2023-07-17T01:30:54.657Z,99624.50
2023-07-17T01:31:07.213Z,99634.19
2023-07-17T01:31:19.738Z,99633.34
2023-07-17T01:31:32.191Z,99633.13
2023-07-17T01:31:44.416Z,99631.44
2023-07-17T01:31:56.387Z,99627.88
2023-07-17T01:32:08.623Z,99629.53
2023-07-17T01:32:21.862Z,99629.53
2023-07-17T01:32:34.195Z,99631.22
2023-07-17T01:32:46.226Z,99632.16
2023-07-17T01:32:58.280Z,99635.06
2023-07-17T01:33:10.561Z,99635.06
2023-07-17T01:33:22.745Z,99633.13
2023-07-17T01:33:35.330Z,99636.72
2023-07-17T01:33:47.401Z,99634.91
2023-07-17T01:33:59.476Z,99629.53
2023-07-17T01:34:11.482Z,99637.44
2023-07-17T01:34:23.584Z,99632.16
2023-07-17T01:34:36.789Z,99634.59
2023-07-17T01:34:48.798Z,99637.97
2023-07-17T01:35:00.731Z,99639.88
2023-07-17T01:35:12.775Z,99636.50
2023-07-17T01:35:24.771Z,99638.19
2023-07-17T01:35:36.711Z,99641.78
2023-07-17T01:35:48.646Z,99637.34
2023-07-17T01:36:01.910Z,99629.31
2023-07-17T01:36:14.925Z,99637.34
2023-07-17T01:36:27.683Z,99635.66
2023-07-17T01:36:39.692Z,99638.19
2023-07-17T01:36:52.766Z,99633.72
2023-07-17T01:37:05.367Z,99635.66
2023-07-17T01:37:17.372Z,99636.00
2023-07-17T01:37:30.002Z,99637.56
2023-07-17T01:37:43.946Z,99634.81
2023-07-17T01:37:55.947Z,99637.44
2023-07-17T01:38:09.273Z,99639.97
2023-07-17T01:38:21.322Z,99634.59
2023-07-17T01:38:34.776Z,99632.69
2023-07-17T01:38:46.888Z,99634.34
2023-07-17T01:38:58.920Z,99641.34
2023-07-17T01:39:11.107Z,99639.53
2023-07-17T01:39:25.628Z,99628.00
2023-07-17T01:39:38.277Z,99633.19
2023-07-17T01:39:50.280Z,99627.91
2023-07-17T01:40:03.780Z,99631.25
2023-07-17T01:40:17.130Z,99636.44
2023-07-17T01:40:29.080Z,99629.34
2023-07-17T01:40:41.066Z,99634.72
2023-07-17T01:40:53.564Z,99633.06
2023-07-17T01:41:05.533Z,99632.22
2023-07-17T01:41:17.765Z,99637.72
2023-07-17T01:41:30.082Z,99637.72
2023-07-17T01:41:42.058Z,99637.97
2023-07-17T01:41:54.194Z,99637.97
2023-07-17T01:42:06.319Z,99638.19
2023-07-17T01:42:18.348Z,99635.31
2023-07-17T01:42:30.356Z,99634.47
2023-07-17T01:42:42.325Z,99629.06
2023-07-17T01:42:54.303Z,99632.69
2023-07-17T01:43:06.452Z,99635.53
2023-07-17T01:43:18.641Z,99638.81
2023-07-17T01:43:30.651Z,99633.63
2023-07-17T01:43:42.646Z,99634.34
2023-07-17T01:43:54.581Z,99632.69
2023-07-17T01:44:06.621Z,99630.03
2023-07-17T01:44:18.538Z,99634.34
2023-07-17T01:44:31.903Z,99626.34
2023-07-17T01:44:43.848Z,99628.13
2023-07-17T01:44:55.894Z,99637.72
2023-07-17T01:45:08.631Z,99642.06
2023-07-17T01:45:20.764Z,99637.72
2023-07-17T01:45:32.704Z,99635.09
2023-07-17T01:45:44.697Z,99636.78
2023-07-17T01:45:56.660Z,99641.09
2023-07-17T01:46:09.327Z,99637.00
2023-07-17T01:46:21.412Z,99636.06
2023-07-17T01:46:34.133Z,99637.72
2023-07-17T01:46:46.301Z,99641.34
2023-07-17T01:46:59.560Z,99641.34
2023-07-17T01:47:11.666Z,99634.59
2023-07-17T01:47:24.802Z,99645.16
2023-07-17T01:47:37.304Z,99639.00
2023-07-17T01:47:50.645Z,99639.00
2023-07-17T01:48:02.768Z,99641.78
2023-07-17T01:48:15.884Z,99645.38
2023-07-17T01:48:28.029Z,99640.31
2023-07-17T01:48:40.031Z,99639.47
2023-07-17T01:48:52.060Z,99641.78
2023-07-17T01:49:04.260Z,99641.78
2023-07-17T01:49:16.402Z,99646.09
2023-07-17T01:49:28.432Z,99647.06
2023-07-17T01:49:41.992Z,99639.97
2023-07-17T01:49:53.968Z,99643.69
2023-07-17T01:50:06.994Z,99638.28
2023-07-17T01:50:19.421Z,99642.00
2023-07-17T01:50:31.419Z,99646.53
2023-07-17T01:50:43.421Z,99643.28
2023-07-17T01:50:55.405Z,99642.44
2023-07-17T01:51:07.470Z,99641.50
2023-07-17T01:51:19.629Z,99644.97
2023-07-17T01:51:31.809Z,99647.72
2023-07-17T01:51:43.745Z,99644.97
2023-07-17T01:51:55.775Z,99640.75
2023-07-17T01:52:10.085Z,99637.38
2023-07-17T01:52:22.065Z,99647.94
2023-07-17T01:52:34.049Z,99645.53
2023-07-17T01:52:46.030Z,99651.75
2023-07-17T01:52:58.106Z,99642.91
2023-07-17T01:53:10.206Z,99644.56
2023-07-17T01:53:22.750Z,99640.97
2023-07-17T01:53:34.823Z,99649.84
2023-07-17T01:53:46.805Z,99641.94
2023-07-17T01:53:58.882Z,99644.47
2023-07-17T01:54:10.900Z,99652.38
2023-07-17T01:54:22.909Z,99644.34
2023-07-17T01:54:35.009Z,99644.16
2023-07-17T01:54:46.944Z,99643.28
2023-07-17T01:54:59.436Z,99644.16
2023-07-17T01:55:11.422Z,99647.72
2023-07-17T01:55:23.414Z,99647.94
2023-07-17T01:55:35.403Z,99650.56
2023-07-17T01:55:47.804Z,99643.53
2023-07-17T01:56:01.528Z,99641.72
2023-07-17T01:56:13.869Z,99646.03
2023-07-17T01:56:26.403Z,99643.19
2023-07-17T01:56:38.516Z,99647.50
2023-07-17T01:56:50.512Z,99645.72
2023-07-17T01:57:02.486Z,99640.44
2023-07-17T01:57:14.496Z,99650.03
2023-07-17T01:57:27.009Z,99639.59
2023-07-17T01:57:39.329Z,99644.63
2023-07-17T01:57:51.373Z,99642.00
2023-07-17T01:58:03.372Z,99650.66
2023-07-17T01:58:15.609Z,99642.00
2023-07-17T01:58:28.007Z,99643.69
2023-07-17T01:58:40.022Z,99640.31
2023-07-17T01:58:52.206Z,99640.31
2023-07-17T01:59:04.154Z,99643.91
2023-07-17T01:59:16.082Z,99640.31
2023-07-17T01:59:28.165Z,99645.59
2023-07-17T01:59:40.157Z,99643.91
2023-07-17T01:59:52.709Z,99648.34
2023-07-17T02:00:04.975Z,99646.53
2023-07-17T02:00:17.194Z,99642.25
2023-07-17T02:00:29.203Z,99645.81
2023-07-17T02:00:41.851Z,99644.34
2023-07-17T02:00:57.467Z,99646.25
2023-07-17T02:01:09.417Z,99647.94
2023-07-17T02:01:22.579Z,99645.19
2023-07-17T02:01:34.959Z,99646.88
2023-07-17T02:01:46.947Z,99649.44
2023-07-17T02:01:58.918Z,99646.78
2023-07-17T02:02:11.093Z,99655.53
2023-07-17T02:02:23.124Z,99648.56
2023-07-17T02:02:35.212Z,99648.66
2023-07-17T02:02:47.201Z,99648.91
2023-07-17T02:02:59.333Z,99642.66
2023-07-17T02:03:11.757Z,99647.94
2023-07-17T02:03:24.086Z,99644.34
2023-07-17T02:03:37.387Z,99647.84
2023-07-17T02:03:49.628Z,99649.63
2023-07-17T02:04:02.430Z,99647.94
2023-07-17T02:04:14.634Z,99643.63
2023-07-17T02:04:26.601Z,99647.94
2023-07-17T02:04:38.649Z,99646.25
2023-07-17T02:04:50.770Z,99644.56
2023-07-17T02:05:03.481Z,99640.16
2023-07-17T02:05:15.593Z,99643.53
2023-07-17T02:05:27.702Z,99645.19
2023-07-17T02:05:39.707Z,99644.34
2023-07-17T02:05:51.799Z,99641.50
2023-07-17T02:06:03.933Z,99641.63
2023-07-17T02:06:17.897Z,99642.44
2023-07-17T02:06:30.034Z,99646.03
2023-07-17T02:06:42.144Z,99643.38
2023-07-17T02:06:54.377Z,99644.97
2023-07-17T02:07:06.462Z,99643.28
2023-07-17T02:07:18.447Z,99640.16
2023-07-17T02:07:30.510Z,99641.94
2023-07-17T02:07:42.441Z,99642.91
2023-07-17T02:07:54.423Z,99643.72
2023-07-17T02:08:07.593Z,99640.25
2023-07-17T02:08:19.588Z,99641.94
2023-07-17T02:08:31.518Z,99637.63
2023-07-17T02:08:43.449Z,99642.06
2023-07-17T02:08:55.757Z,99638.44
2023-07-17T02:09:08.135Z,99643.72
2023-07-17T02:09:20.182Z,99640.97
2023-07-17T02:09:32.248Z,99639.06
2023-07-17T02:09:44.209Z,99639.91
2023-07-17T02:09:56.177Z,99640.75
2023-07-17T02:10:08.538Z,99637.28
2023-07-17T02:10:20.526Z,99638.09
2023-07-17T02:10:32.590Z,99638.09
2023-07-17T02:10:45.415Z,99641.63
2023-07-17T02:10:57.470Z,99637.16
2023-07-17T02:11:09.818Z,99643.38
2023-07-17T02:11:21.970Z,99640.75
2023-07-17T02:11:33.955Z,99635.91
2023-07-17T02:11:45.940Z,99641.19
2023-07-17T02:11:57.956Z,99645.63
2023-07-17T02:12:10.194Z,99636.88
2023-07-17T02:12:22.223Z,99641.34
2023-07-17T02:12:34.336Z,99637.81
2023-07-17T02:12:46.303Z,99644.91
2023-07-17T02:12:58.371Z,99645.00
2023-07-17T02:13:11.433Z,99636.38
2023-07-17T02:13:23.354Z,99646.91
2023-07-17T02:13:35.299Z,99645.47
2023-07-17T02:13:47.543Z,99636.59
2023-07-17T02:13:59.516Z,99648.81
2023-07-17T02:14:12.058Z,99640.19
2023-07-17T02:14:24.100Z,99636.59
2023-07-17T02:14:36.182Z,99650.72
2023-07-17T02:14:48.206Z,99645.25
2023-07-17T02:15:00.299Z,99639.97
2023-07-17T02:15:13.741Z,99647.66
2023-07-17T02:15:25.732Z,99645.75
2023-07-17T02:15:37.783Z,99643.09
2023-07-17T02:15:49.777Z,99644.81
2023-07-17T02:16:01.866Z,99650.28
2023-07-17T02:16:13.855Z,99643.34
2023-07-17T02:16:26.818Z,99647.16
2023-07-17T02:16:39.042Z,99641.88
2023-07-17T02:16:51.111Z,99639.97
2023-07-17T02:17:03.206Z,99648.63
2023-07-17T02:17:15.279Z,99646.91
2023-07-17T02:17:27.515Z,99651.38
2023-07-17T02:17:40.161Z,99654.00
2023-07-17T02:17:52.725Z,99644.28
2023-07-17T02:18:04.882Z,99647.88
2023-07-17T02:18:16.929Z,99648.00
2023-07-17T02:18:31.137Z,99651.81
2023-07-17T02:18:43.101Z,99649.28
2023-07-17T02:18:55.103Z,99644.13
2023-07-17T02:19:08.067Z,99650.97
2023-07-17T02:19:20.247Z,99649.28
2023-07-17T02:19:32.211Z,99651.91
2023-07-17T02:19:44.131Z,99653.72
2023-07-17T02:19:56.045Z,99647.81
2023-07-17T02:20:11.700Z,99640.84
2023-07-17T02:20:24.390Z,99646.13
2023-07-17T02:20:36.685Z,99648.53
2023-07-17T02:20:51.981Z,99650.97
2023-07-17T02:21:05.338Z,99655.28
2023-07-17T02:21:17.594Z,99649.06
2023-07-17T02:21:29.769Z,99646.41
2023-07-17T02:21:41.725Z,99650.72
2023-07-17T02:21:53.686Z,99649.91
2023-07-17T02:22:05.871Z,99647.25
2023-07-17T02:22:17.841Z,99651.16
2023-07-17T02:22:29.830Z,99656.69
2023-07-17T02:22:42.305Z,99655.00
2023-07-17T02:22:54.398Z,99651.41
2023-07-17T02:23:06.480Z,99658.59
2023-07-17T02:23:18.910Z,99658.06
2023-07-17T02:23:31.312Z,99661.78
2023-07-17T02:23:43.284Z,99664.31
2023-07-17T02:23:55.349Z,99659.03
2023-07-17T02:24:07.356Z,99655.44
2023-07-17T02:24:20.224Z,99656.41
2023-07-17T02:24:32.291Z,99662.41
2023-07-17T02:24:44.288Z,99653.75
2023-07-17T02:24:56.282Z,99662.59
2023-07-17T02:25:08.917Z,99660.69
2023-07-17T02:25:21.145Z,99655.44
2023-07-17T02:25:33.115Z,99657.00
2023-07-17T02:25:45.408Z,99656.88
2023-07-17T02:25:57.732Z,99659.53
2023-07-17T02:26:12.161Z,99653.53
2023-07-17T02:26:24.323Z,99662.28
2023-07-17T02:26:36.285Z,99649.94
2023-07-17T02:26:48.712Z,99657.22
2023-07-17T02:27:02.506Z,99657.13
2023-07-17T02:27:14.430Z,99656.16
2023-07-17T02:27:26.787Z,99658.78
2023-07-17T02:27:38.803Z,99660.59